Terminal Aerodrome Forecast
Issued by NWS

Home | Current Version | Previous Version | Graphics & Text | Print | Product List | Glossary On
Versions: 1 2 3 4 5 6 7 8 9 10 11 12 13 14 15
365
FTUS43 KBIS 211824 RRA
TAFJMS
TAF
KJMS 211824Z 2118/2218 20015G22KT P6SM FEW060 SCT200
     FM212000 25016G23KT P6SM FEW060 FEW250
     FM212200 29017G23KT P6SM FEW060 FEW200
     FM220000 32017G23KT P6SM FEW070 FEW200
     FM220200 32011KT P6SM SKC
     FM220500 VRB05KT P6SM FEW100 FEW250
     FM221500 27010KT P6SM FEW070 FEW250=

USA.gov is the U.S. government's official web portal to all federal, state and local government web resources and services.